Weitere Informationen folgen in Kürze ...

Flugwetter Augsburg

[source: ADDS]
METAR
EDMA 280450Z AUTO 09004KT 070V130 4400 // OVC002/// M02/M02 Q1019 =
TAF
Cookies erleichtern die Bereitstellung unserer Dienste. Mit der Nutzung unserer Dienste erklären Sie sich damit einverstanden, dass wir Cookies verwenden.
Weitere Informationen Ok